KMUI/MUI METAR and TAF weather

Enter ICAO airport designator
Station Type Date Time Source
KMUI METAR 2021/05/07 00:56 UTC NOAA

KMUI 070056Z 00000KT 10SM BKN200 12/03 A2996 RMK AO2A SLP149 T01150025


Station Type Date Time Source
KMUI Decoded METAR 2021/05/07 00:56 UTC NOAA

Muir Army Air Field / Indiantown, PA, United States (KMUI) 40-26N 076-34W
May 06, 2021 - 08:56 PM EDT / 2021.05.07 0056 UTC
Wind: Calm:0
Visibility: 10 mile(s):0
Sky conditions: mostly cloudy
Temperature: 52.7 F (11.5 C)
Dew Point: 36.5 F (2.5 C)
Relative Humidity: 53%
Pressure (altimeter): 29.96 in. Hg (1014 hPa)
ob: KMUI 070056Z 00000KT 10SM BKN200 12/03 A2996 RMK AO2A SLP149 T01150025
cycle: 1

Station Type Date Time Source
KMUI TAF 2021/05/06 19:09 UTC NOAA

TAF KMUI 061900Z 0619/0801 30009KT 9999 SCT050 BKN200 QNH2995INS
BECMG 0623/0624 VRB06KT 9999 BKN050 BKN180 QNH2994INS
BECMG 0712/0713 10010G15KT 9999 OVC050 QNH2979INS
BECMG 0719/0720 VRB06KT 9000 -RA BKN020 OVC050 QNH2977INS
BECMG 0722/0723 24009KT 8000 -RA BR OVC012 QNH2980INS TX19/0619Z TN06/0712Z LAST NO
AMDS AFT 0705 NEXT 0711

Example: see airport list